Terminal Aerodrome Forecast
Issued by NWS Sioux Falls, SD

Home | Current Version | Previous Version | Graphics & Text | Print | Product List | Glossary On
Versions: 1 2 3 4 5 6 7 8 9 10 11 12 13 14 15 16 17
275
FTUS43 KFSD 141547 AAB
TAFFSD
TAF AMD
KFSD 141547Z 1416/1512 VRB04KT P6SM VCSH SCT015 OVC035
     FM141800 31008KT P6SM OVC035
     FM142100 30010KT P6SM VCSH SCT015 OVC030
     FM150100 33010G20KT P6SM BKN045
     FM150500 31010KT P6SM BKN045=

USA.gov is the U.S. government's official web portal to all federal, state and local government web resources and services.